Time;durP1;ratioP1;P1;durP2;ratioP2;P2;SDS_P1;SDS_P2;PMS_P1;PMS_P2;Temp;Humidity;BMP_temperature;BMP_pressure;BME280_temperature;BME280_humidity;BME280_pressure;Samples;Min_cycle;Max_cycle;Signal;HPM_P1;HPM_P2
2021/10/12 05:40:48;;;;;;;37.40;21.88;;;;;;;;;;5172642;23;20059;-59
2021/10/12 05:43:14;;;;;;;34.38;22.10;;;;;;;;;;4933178;29;20032;-58
2021/10/12 05:45:40;;;;;;;36.05;23.05;;;;;;;;;;4933490;29;20031;-58
2021/10/12 05:48:07;;;;;;;46.55;30.25;;;;;;;;;;4935007;29;20035;-58
2021/10/12 05:50:34;;;;;;;39.40;25.63;;;;;;;;;;4937079;29;20111;-59
2021/10/12 05:55:49;;;;;;;43.83;27.25;;;;;;;;;;4937007;29;20050;-61
2021/10/12 05:58:27;;;;;;;44.75;27.00;;;;;;;;;;4936963;29;20456;-58
2021/10/12 06:00:53;;;;;;;47.58;27.13;;;;;;;;;;4936774;29;20432;-58
2021/10/12 06:03:21;;;;;;;46.70;30.45;;;;;;;;;;4936993;29;20035;-58
2021/10/12 06:05:47;;;;;;;42.00;27.67;;;;;;;;;;4936997;29;20067;-59
2021/10/12 06:08:13;;;;;;;38.80;25.15;;;;;;;;;;4937372;29;20031;-63
2021/10/12 06:10:39;;;;;;;39.83;25.45;;;;;;;;;;4935526;29;20037;-65
2021/10/12 06:13:12;;;;;;;43.10;26.10;;;;;;;;;;4937141;29;20027;-69
2021/10/12 06:15:38;;;;;;;;;;;;;;;;;;4937100;29;20074;-58
2021/10/12 06:18:04;;;;;;;48.30;28.85;;;;;;;;;;4935436;29;19953;-59
2021/10/12 06:20:30;;;;;;;49.92;30.80;;;;;;;;;;4935524;29;20075;-59
2021/10/12 06:22:57;;;;;;;50.70;30.70;;;;;;;;;;4936816;29;20114;-59
2021/10/12 06:25:23;;;;;;;50.97;29.40;;;;;;;;;;4936768;29;20139;-67
2021/10/12 06:27:49;;;;;;;45.53;27.90;;;;;;;;;;4936334;29;20106;-67
2021/10/12 06:30:15;;;;;;;48.85;30.20;;;;;;;;;;4935797;29;20027;-58
2021/10/12 06:32:41;;;;;;;47.85;30.90;;;;;;;;;;4936335;29;20397;-67
2021/10/12 06:35:07;;;;;;;44.88;28.17;;;;;;;;;;4936674;29;20035;-58
2021/10/12 06:37:33;;;;;;;51.85;31.13;;;;;;;;;;4936431;29;20032;-71
2021/10/12 06:39:59;;;;;;;42.65;27.08;;;;;;;;;;4936488;29;20032;-70
2021/10/12 06:42:25;;;;;;;48.25;29.63;;;;;;;;;;4936087;29;20151;-71
2021/10/12 06:44:51;;;;;;;46.45;28.63;;;;;;;;;;4936170;29;20035;-70
2021/10/12 06:47:18;;;;;;;49.67;29.45;;;;;;;;;;4936447;29;20059;-62
2021/10/12 06:49:44;;;;;;;48.58;29.00;;;;;;;;;;4936582;29;20032;-62
2021/10/12 06:52:10;;;;;;;47.60;28.58;;;;;;;;;;4936164;29;20019;-70
2021/10/12 06:54:36;;;;;;;48.83;30.08;;;;;;;;;;4936082;29;20107;-71
2021/10/12 06:57:08;;;;;;;44.75;28.50;;;;;;;;;;4936010;29;20028;-67
2021/10/12 06:59:34;;;;;;;48.83;30.17;;;;;;;;;;4934141;29;20086;-59
2021/10/12 07:02:00;;;;;;;47.38;30.35;;;;;;;;;;4936308;29;20019;-66
2021/10/12 07:04:26;;;;;;;44.72;29.00;;;;;;;;;;4935568;29;20046;-71
2021/10/12 07:06:52;;;;;;;43.97;27.45;;;;;;;;;;4935588;29;20039;-68
2021/10/12 07:09:18;;;;;;;46.95;28.23;;;;;;;;;;4934277;29;20040;-69
2021/10/12 07:11:44;;;;;;;45.90;27.85;;;;;;;;;;4935361;29;20399;-65
2021/10/12 07:14:11;;;;;;;41.92;28.13;;;;;;;;;;4935961;29;20038;-65
2021/10/12 07:16:38;;;;;;;43.88;28.52;;;;;;;;;;4935208;29;20035;-66
2021/10/12 07:19:04;;;;;;;41.72;27.08;;;;;;;;;;4935408;29;20447;-70
2021/10/12 07:21:30;;;;;;;44.95;27.10;;;;;;;;;;4934871;29;20045;-68
2021/10/12 07:23:56;;;;;;;44.78;27.23;;;;;;;;;;4934972;29;20035;-59
2021/10/12 07:26:23;;;;;;;42.78;26.73;;;;;;;;;;4935246;29;20035;-59
2021/10/12 07:28:49;;;;;;;41.45;26.50;;;;;;;;;;4935492;29;20046;-69
2021/10/12 07:31:15;;;;;;;45.67;28.27;;;;;;;;;;4935622;29;20024;-66
2021/10/12 07:33:41;;;;;;;40.50;25.52;;;;;;;;;;4935333;29;20391;-63
2021/10/12 07:36:07;;;;;;;41.70;25.75;;;;;;;;;;4935308;29;20024;-59
2021/10/12 07:38:33;;;;;;;38.78;24.17;;;;;;;;;;4935453;29;20032;-60
2021/10/12 07:40:59;;;;;;;36.35;24.95;;;;;;;;;;4934314;29;20522;-69
2021/10/12 07:43:26;;;;;;;40.20;24.90;;;;;;;;;;4935112;29;20048;-68
2021/10/12 07:45:52;;;;;;;38.45;25.40;;;;;;;;;;4935118;29;20574;-63
2021/10/12 07:48:19;;;;;;;39.47;24.48;;;;;;;;;;4933674;29;20542;-69
2021/10/12 07:50:45;;;;;;;37.30;24.38;;;;;;;;;;4934903;29;20372;-61
2021/10/12 07:53:12;;;;;;;35.92;23.17;;;;;;;;;;4934524;29;20028;-68
2021/10/12 07:55:41;;;;;;;36.50;23.35;;;;;;;;;;4934469;29;20024;-65
2021/10/12 07:58:07;;;;;;;39.28;24.30;;;;;;;;;;4934344;29;20058;-68
2021/10/12 08:00:34;;;;;;;34.05;22.45;;;;;;;;;;4933368;29;20027;-66
2021/10/12 08:03:00;;;;;;;33.65;21.92;;;;;;;;;;4934139;29;20031;-60
2021/10/12 08:05:27;;;;;;;33.70;22.33;;;;;;;;;;4934389;29;20044;-69
2021/10/12 08:07:53;;;;;;;35.30;22.75;;;;;;;;;;4934440;29;20020;-65
2021/10/12 08:10:20;;;;;;;33.30;22.60;;;;;;;;;;4933433;29;20055;-67
2021/10/12 08:12:48;;;;;;;34.25;22.38;;;;;;;;;;4934092;29;20036;-67
2021/10/12 08:15:14;;;;;;;36.10;23.65;;;;;;;;;;4933919;29;20023;-63
2021/10/12 08:17:40;;;;;;;32.30;21.60;;;;;;;;;;4934274;29;20024;-69
2021/10/12 08:20:06;;;;;;;34.88;23.63;;;;;;;;;;4934640;29;20019;-68
2021/10/12 08:22:33;;;;;;;34.00;22.48;;;;;;;;;;4932928;29;20035;-60
2021/10/12 08:24:59;;;;;;;31.00;21.40;;;;;;;;;;4932513;29;20044;-60
2021/10/12 08:27:25;;;;;;;35.08;22.80;;;;;;;;;;4933287;29;20527;-62
2021/10/12 08:29:51;;;;;;;32.60;22.33;;;;;;;;;;4932990;29;20030;-61
2021/10/12 08:32:17;;;;;;;29.77;20.10;;;;;;;;;;4933765;29;20023;-59
2021/10/12 08:34:43;;;;;;;31.55;20.92;;;;;;;;;;4932954;29;20035;-59
2021/10/12 08:37:09;;;;;;;30.42;20.58;;;;;;;;;;4933764;29;20024;-59
2021/10/12 08:39:40;;;;;;;33.15;21.42;;;;;;;;;;4933072;29;20492;-66
2021/10/12 08:42:36;;;;;;;31.45;21.25;;;;;;;;;;4932362;29;20043;-61
2021/10/12 08:45:04;;;;;;;32.70;22.00;;;;;;;;;;4912451;29;20056;-62
2021/10/12 08:47:31;;;;;;;32.72;21.63;;;;;;;;;;4909871;29;20164;-60
2021/10/12 08:49:58;;;;;;;32.20;21.98;;;;;;;;;;4911512;29;20079;-59
2021/10/12 08:52:24;;;;;;;34.60;22.50;;;;;;;;;;4912360;29;20040;-61
2021/10/12 08:54:51;;;;;;;37.65;23.15;;;;;;;;;;4911685;29;20511;-63
2021/10/12 08:57:31;;;;;;;29.58;20.92;;;;;;;;;;4911932;29;20060;-61
2021/10/12 08:59:58;;;;;;;32.40;21.80;;;;;;;;;;4911733;29;20035;-61
2021/10/12 09:02:28;;;;;;;30.80;20.45;;;;;;;;;;4896003;29;20486;-60
2021/10/12 09:04:54;;;;;;;34.67;21.45;;;;;;;;;;4912235;29;20040;-63
2021/10/12 09:07:22;;;;;;;37.08;24.30;;;;;;;;;;4912047;29;20480;-59
2021/10/12 09:09:48;;;;;;;41.13;23.05;;;;;;;;;;4911710;29;20100;-61
2021/10/12 09:12:14;;;;;;;33.10;22.73;;;;;;;;;;4912138;29;20101;-64
2021/10/12 09:14:52;;;;;;;32.75;21.70;;;;;;;;;;4912196;29;20047;-59
2021/10/12 09:17:28;;;;;;;31.95;22.90;;;;;;;;;;4912073;29;20028;-60
2021/10/12 09:19:54;;;;;;;38.22;24.95;;;;;;;;;;4895676;29;20406;-62
2021/10/12 09:22:20;;;;;;;41.55;25.38;;;;;;;;;;4932659;29;20373;-61
2021/10/12 09:24:48;;;;;;;37.35;24.48;;;;;;;;;;4939569;29;20441;-63
2021/10/12 09:27:15;;;;;;;38.53;25.65;;;;;;;;;;4939791;29;20023;-60
2021/10/12 09:32:11;;;;;;;40.45;25.60;;;;;;;;;;4939855;29;20793;-59
2021/10/12 09:34:38;;;;;;;41.78;26.35;;;;;;;;;;4939510;29;20063;-69
2021/10/12 09:37:05;;;;;;;39.90;26.33;;;;;;;;;;4939479;29;20541;-62
2021/10/12 09:39:32;;;;;;;42.92;26.85;;;;;;;;;;4939638;29;20403;-59
2021/10/12 09:42:00;;;;;;;43.03;27.95;;;;;;;;;;4939037;29;20048;-63
2021/10/12 09:44:28;;;;;;;41.88;26.63;;;;;;;;;;4937769;29;20052;-66
2021/10/12 09:47:04;;;;;;;46.53;28.27;;;;;;;;;;4939261;29;20126;-68
2021/10/12 09:49:30;;;;;;;43.42;27.33;;;;;;;;;;4938831;29;20032;-69
2021/10/12 09:51:56;;;;;;;39.85;26.50;;;;;;;;;;4939569;29;20019;-66
2021/10/12 09:54:23;;;;;;;38.05;25.13;;;;;;;;;;4939364;29;20082;-66
2021/10/12 09:56:50;;;;;;;34.20;23.85;;;;;;;;;;4939207;29;20030;-63
2021/10/12 09:59:16;;;;;;;35.70;24.08;;;;;;;;;;4939382;29;20477;-62
2021/10/12 10:01:44;;;;;;;39.47;24.90;;;;;;;;;;4939616;29;20511;-68
2021/10/12 10:04:11;;;;;;;36.88;24.20;;;;;;;;;;4939266;29;20039;-70
2021/10/12 10:06:42;;;;;;;35.33;23.25;;;;;;;;;;4939477;29;20031;-69
2021/10/12 10:09:08;;;;;;;36.63;23.73;;;;;;;;;;4938699;29;20413;-59
2021/10/12 10:11:35;;;;;;;37.63;24.42;;;;;;;;;;4939076;29;20027;-62
2021/10/12 10:14:02;;;;;;;38.85;23.10;;;;;;;;;;4939758;29;20051;-66
2021/10/12 10:16:29;;;;;;;36.47;22.95;;;;;;;;;;4939112;29;20145;-69
2021/10/12 10:18:55;;;;;;;32.30;22.48;;;;;;;;;;4939490;29;20448;-70
2021/10/12 10:21:21;;;;;;;33.80;22.60;;;;;;;;;;4939495;29;20032;-59
2021/10/12 10:24:00;;;;;;;38.22;22.75;;;;;;;;;;4939148;29;20439;-64
2021/10/12 10:26:36;;;;;;;38.67;23.40;;;;;;;;;;4938997;29;20050;-61
2021/10/12 10:29:18;;;;;;;37.17;23.50;;;;;;;;;;4938591;29;20111;-59
2021/10/12 10:31:47;;;;;;;37.75;23.80;;;;;;;;;;4937730;29;20479;-68
2021/10/12 10:34:32;;;;;;;35.10;24.08;;;;;;;;;;4937446;29;20087;-67
2021/10/12 10:37:16;;;;;;;34.92;23.35;;;;;;;;;;4935872;29;20035;-68
2021/10/12 10:39:47;;;;;;;39.08;23.48;;;;;;;;;;4936004;29;20035;-70
2021/10/12 10:42:28;;;;;;;37.85;24.30;;;;;;;;;;4935180;29;20106;-72
2021/10/12 10:44:55;;;;;;;34.42;23.17;;;;;;;;;;4935135;29;20051;-59
2021/10/12 10:47:39;;;;;;;39.05;24.33;;;;;;;;;;4935156;29;20105;-59
2021/10/12 10:50:12;;;;;;;34.70;24.40;;;;;;;;;;4935562;29;20082;-58
2021/10/12 10:52:42;;;;;;;39.65;25.50;;;;;;;;;;4935741;29;20115;-70
2021/10/12 10:55:10;;;;;;;35.75;24.73;;;;;;;;;;4935945;29;20391;-59
2021/10/12 10:57:36;;;;;;;37.22;23.42;;;;;;;;;;4935914;29;20126;-59
2021/10/12 11:00:18;;;;;;;38.05;24.38;;;;;;;;;;4935645;29;20515;-63
2021/10/12 11:02:46;;;;;;;39.17;24.83;;;;;;;;;;4935690;29;20503;-60
2021/10/12 11:05:30;;;;;;;39.50;25.70;;;;;;;;;;4935279;29;20044;-70
2021/10/12 11:08:09;;;;;;;44.47;25.73;;;;;;;;;;4935560;29;20020;-59
2021/10/12 11:10:35;;;;;;;40.70;26.35;;;;;;;;;;4935081;29;20035;-62
2021/10/12 11:13:01;;;;;;;41.97;27.05;;;;;;;;;;4935689;29;20087;-59
2021/10/12 11:15:27;;;;;;;44.38;27.70;;;;;;;;;;4935492;29;20515;-68
2021/10/12 11:18:06;;;;;;;42.53;27.65;;;;;;;;;;4935595;29;20055;-60
2021/10/12 11:20:39;;;;;;;41.63;27.60;;;;;;;;;;4935297;29;20094;-58
2021/10/12 11:23:06;;;;;;;42.40;28.80;;;;;;;;;;4934612;29;20510;-59
2021/10/12 11:25:32;;;;;;;44.13;28.55;;;;;;;;;;4934873;29;20043;-58
2021/10/12 11:28:06;;;;;;;43.75;26.98;;;;;;;;;;4935387;29;20024;-60
2021/10/12 11:30:35;;;;;;;41.35;26.90;;;;;;;;;;4935258;29;20107;-58
2021/10/12 11:33:01;;;;;;;40.97;27.95;;;;;;;;;;4934272;29;20274;-58
2021/10/12 11:35:34;;;;;;;49.33;28.85;;;;;;;;;;4933061;29;20034;-61
2021/10/12 11:38:00;;;;;;;;;;;;;;;;;;4934497;29;20062;-62
2021/10/12 11:40:27;;;;;;;40.38;26.58;;;;;;;;;;4934292;29;19907;-59
2021/10/12 11:42:54;;;;;;;41.60;26.55;;;;;;;;;;4934839;29;20052;-57
2021/10/12 11:45:20;;;;;;;42.75;27.48;;;;;;;;;;4933922;29;20063;-59
2021/10/12 11:47:46;;;;;;;43.75;27.45;;;;;;;;;;4934407;29;20515;-58
2021/10/12 11:50:13;;;;;;;43.10;28.75;;;;;;;;;;4933548;29;20052;-60
2021/10/12 11:52:41;;;;;;;42.75;28.33;;;;;;;;;;4934460;29;20031;-60
2021/10/12 11:55:07;;;;;;;40.47;27.58;;;;;;;;;;4934390;29;20440;-60
2021/10/12 11:57:33;;;;;;;45.17;27.63;;;;;;;;;;4934343;29;20461;-64
2021/10/12 11:59:59;;;;;;;45.28;27.35;;;;;;;;;;4934459;29;20099;-59
2021/10/12 12:02:29;;;;;;;41.00;27.02;;;;;;;;;;4933924;29;20031;-65
2021/10/12 12:04:59;;;;;;;41.88;26.50;;;;;;;;;;4933757;29;20043;-59
2021/10/12 12:07:26;;;;;;;43.13;26.70;;;;;;;;;;4934422;29;20435;-60
2021/10/12 12:09:52;;;;;;;44.58;27.42;;;;;;;;;;4934402;29;20036;-64
2021/10/12 12:12:19;;;;;;;39.40;27.00;;;;;;;;;;4933869;29;20110;-66
2021/10/12 12:14:49;;;;;;;40.00;25.65;;;;;;;;;;4934224;29;20027;-64
2021/10/12 12:17:25;;;;;;;47.47;27.75;;;;;;;;;;4934491;29;20038;-59
2021/10/12 12:19:55;;;;;;;40.65;26.58;;;;;;;;;;4934087;29;20094;-60
2021/10/12 12:22:22;;;;;;;39.55;25.45;;;;;;;;;;4933934;29;20035;-67
2021/10/12 12:25:14;;;;;;;41.75;25.85;;;;;;;;;;4933419;29;20095;-65
2021/10/12 12:27:55;;;;;;;40.30;26.92;;;;;;;;;;4837949;29;20494;-60
2021/10/12 12:30:50;;;;;;;40.17;26.90;;;;;;;;;;4837601;29;20398;-67
2021/10/12 12:33:16;;;;;;;40.92;25.85;;;;;;;;;;4765678;30;20063;-67
2021/10/12 12:35:47;;;;;;;42.85;25.88;;;;;;;;;;4765907;30;20080;-67
2021/10/12 12:38:22;;;;;;;44.35;27.13;;;;;;;;;;4765872;30;20143;-66
2021/10/12 12:40:51;;;;;;;47.15;28.00;;;;;;;;;;4765780;30;20436;-60
2021/10/12 12:43:18;;;;;;;45.67;28.17;;;;;;;;;;4765830;30;20151;-62
2021/10/12 12:45:44;;;;;;;47.35;28.88;;;;;;;;;;4765605;30;20131;-61
2021/10/12 12:48:10;;;;;;;45.63;27.02;;;;;;;;;;4765524;30;20107;-67
2021/10/12 12:50:38;;;;;;;48.00;29.00;;;;;;;;;;4765432;30;20047;-61
2021/10/12 12:53:05;;;;;;;40.75;26.08;;;;;;;;;;4765467;30;20118;-68
2021/10/12 12:55:31;;;;;;;41.78;26.95;;;;;;;;;;4765043;30;20101;-60
2021/10/12 12:57:57;;;;;;;49.03;29.52;;;;;;;;;;4765344;30;20262;-67
2021/10/12 13:00:23;;;;;;;50.00;30.52;;;;;;;;;;4765608;30;20044;-60
2021/10/12 13:02:56;;;;;;;47.88;29.33;;;;;;;;;;4765191;30;20134;-58
2021/10/12 13:05:22;;;;;;;45.13;29.05;;;;;;;;;;4808449;29;20062;-63
2021/10/12 13:07:49;;;;;;;42.75;29.20;;;;;;;;;;4819677;29;20113;-58
2021/10/12 13:10:16;;;;;;;53.85;31.58;;;;;;;;;;4904021;29;20036;-59
2021/10/12 13:12:44;;;;;;;50.70;31.15;;;;;;;;;;4932670;29;20484;-62
2021/10/12 13:15:11;;;;;;;45.53;29.30;;;;;;;;;;4933060;29;20036;-60
2021/10/12 13:17:37;;;;;;;47.88;30.58;;;;;;;;;;4933064;29;20456;-59
2021/10/12 13:20:03;;;;;;;49.75;29.73;;;;;;;;;;4933028;29;20142;-60
2021/10/12 13:22:30;;;;;;;47.05;28.35;;;;;;;;;;4932875;29;20050;-70
2021/10/12 13:24:56;;;;;;;44.85;29.05;;;;;;;;;;4933374;29;20038;-74
2021/10/12 13:27:22;;;;;;;43.20;28.05;;;;;;;;;;4932826;29;20051;-62
2021/10/12 13:29:48;;;;;;;48.72;31.10;;;;;;;;;;4915663;29;20458;-74
2021/10/12 13:32:14;;;;;;;50.50;31.58;;;;;;;;;;4933415;29;20023;-68
2021/10/12 13:34:40;;;;;;;48.08;31.17;;;;;;;;;;4933170;29;20055;-63
2021/10/12 13:37:06;;;;;;;48.97;30.70;;;;;;;;;;4932594;29;20031;-71
2021/10/12 13:39:32;;;;;;;49.40;30.50;;;;;;;;;;4933308;29;20078;-69
2021/10/12 13:41:58;;;;;;;47.67;31.65;;;;;;;;;;4932750;29;20051;-74
2021/10/12 13:44:25;;;;;;;50.15;30.75;;;;;;;;;;4933033;29;20078;-62
2021/10/12 13:46:51;;;;;;;49.90;31.50;;;;;;;;;;4932359;29;20131;-57
2021/10/12 13:49:17;;;;;;;45.38;29.77;;;;;;;;;;4932783;29;20552;-58
2021/10/12 13:51:43;;;;;;;48.30;31.15;;;;;;;;;;4932740;29;20027;-58
2021/10/12 13:54:10;;;;;;;42.22;29.83;;;;;;;;;;4932884;29;20055;-72
2021/10/12 13:56:36;;;;;;;42.80;29.08;;;;;;;;;;4932925;29;20040;-79
2021/10/12 13:59:02;;;;;;;48.80;30.15;;;;;;;;;;4932869;29;20035;-79
2021/10/12 14:01:28;;;;;;;50.42;31.10;;;;;;;;;;4933025;29;20143;-59
2021/10/12 14:03:54;;;;;;;46.85;30.75;;;;;;;;;;4932787;29;20388;-74
2021/10/12 14:06:20;;;;;;;45.80;30.02;;;;;;;;;;4932741;29;20078;-64
2021/10/12 14:08:46;;;;;;;49.58;30.73;;;;;;;;;;4932971;29;20031;-67
2021/10/12 14:11:13;;;;;;;47.03;30.30;;;;;;;;;;4936622;29;20076;-72
2021/10/12 14:13:39;;;;;;;46.03;30.95;;;;;;;;;;4936027;29;20036;-74
2021/10/12 14:16:05;;;;;;;45.78;30.98;;;;;;;;;;4936462;29;20038;-74
2021/10/12 14:18:32;;;;;;;44.35;29.48;;;;;;;;;;4936163;29;20050;-58
2021/10/12 14:20:58;;;;;;;46.70;31.23;;;;;;;;;;4935788;29;20051;-61
2021/10/12 14:23:24;;;;;;;42.13;29.45;;;;;;;;;;4936216;29;20034;-67
2021/10/12 14:25:50;;;;;;;42.45;28.58;;;;;;;;;;4935890;29;20689;-58
2021/10/12 14:28:17;;;;;;;42.58;29.90;;;;;;;;;;4935400;29;20031;-61
2021/10/12 14:30:43;;;;;;;44.28;30.45;;;;;;;;;;4936054;29;20031;-60
2021/10/12 14:33:09;;;;;;;48.72;30.00;;;;;;;;;;4936244;29;20028;-63
2021/10/12 14:35:36;;;;;;;50.33;30.50;;;;;;;;;;4934635;29;20039;-64
2021/10/12 14:38:02;;;;;;;49.42;29.58;;;;;;;;;;4934732;29;20515;-72
2021/10/12 14:40:28;;;;;;;48.70;30.48;;;;;;;;;;4935088;29;20043;-79
2021/10/12 14:42:54;;;;;;;45.47;29.50;;;;;;;;;;4935533;29;20051;-79
2021/10/12 14:45:20;;;;;;;47.88;29.67;;;;;;;;;;4935968;29;20091;-82
2021/10/12 14:47:47;;;;;;;41.35;28.48;;;;;;;;;;4935288;29;20066;-58
2021/10/12 14:50:17;;;;;;;43.30;27.73;;;;;;;;;;4934725;29;20034;-66
2021/10/12 14:52:43;;;;;;;43.30;28.48;;;;;;;;;;4934931;29;20027;-65
2021/10/12 14:55:09;;;;;;;41.05;27.20;;;;;;;;;;4935789;29;20038;-68
2021/10/12 14:57:35;;;;;;;38.60;27.08;;;;;;;;;;4935286;29;20027;-58
2021/10/12 15:00:01;;;;;;;41.92;27.95;;;;;;;;;;4935031;29;20058;-58
2021/10/12 15:02:29;;;;;;;42.72;27.73;;;;;;;;;;4935012;29;20039;-59
2021/10/12 15:04:56;;;;;;;43.20;29.50;;;;;;;;;;4935563;29;20624;-80
2021/10/12 15:07:22;;;;;;;42.85;28.92;;;;;;;;;;4935159;29;20042;-65
2021/10/12 15:09:48;;;;;;;48.53;31.38;;;;;;;;;;4934245;29;20103;-79
2021/10/12 15:12:15;;;;;;;48.15;30.52;;;;;;;;;;4934382;29;20047;-75
2021/10/12 15:14:41;;;;;;;46.40;30.83;;;;;;;;;;4933747;29;20063;-62
2021/10/12 15:17:07;;;;;;;46.92;32.13;;;;;;;;;;4933979;29;20100;-60
2021/10/12 15:19:33;;;;;;;50.78;32.20;;;;;;;;;;4922864;29;20044;-77
2021/10/12 15:22:00;;;;;;;49.63;32.30;;;;;;;;;;4933889;29;20030;-59
2021/10/12 15:24:26;;;;;;;48.30;31.05;;;;;;;;;;4934623;29;20117;-66
2021/10/12 15:26:52;;;;;;;44.97;31.25;;;;;;;;;;4934458;29;20079;-58
2021/10/12 15:29:18;;;;;;;45.47;30.35;;;;;;;;;;4935155;29;20036;-58
2021/10/12 15:31:44;;;;;;;44.95;30.73;;;;;;;;;;4934254;29;20024;-74
2021/10/12 15:34:10;;;;;;;50.63;31.65;;;;;;;;;;4935080;29;20042;-81
2021/10/12 15:36:36;;;;;;;46.20;31.55;;;;;;;;;;4935297;29;20032;-58
2021/10/12 15:39:31;;;;;;;48.97;31.35;;;;;;;;;;4933515;29;20035;-80
2021/10/12 15:41:58;;;;;;;52.53;32.95;;;;;;;;;;4882973;29;20101;-81
2021/10/12 15:44:25;;;;;;;49.08;32.55;;;;;;;;;;4880333;29;20132;-70
2021/10/12 15:46:51;;;;;;;47.80;32.15;;;;;;;;;;4883858;29;20167;-79
2021/10/12 15:49:18;;;;;;;52.20;33.92;;;;;;;;;;4885652;29;20551;-81
2021/10/12 15:51:45;;;;;;;54.28;34.55;;;;;;;;;;4893880;29;20417;-59
2021/10/12 15:54:11;;;;;;;54.63;34.17;;;;;;;;;;4894512;29;20189;-58
2021/10/12 15:56:38;;;;;;;52.78;34.47;;;;;;;;;;4894382;29;20037;-61
2021/10/12 15:59:04;;;;;;;51.50;33.75;;;;;;;;;;4894355;29;20073;-82
2021/10/12 16:01:30;;;;;;;60.67;37.05;;;;;;;;;;4894310;29;20043;-81
2021/10/12 16:03:57;;;;;;;56.60;36.85;;;;;;;;;;4894036;29;20036;-67
2021/10/12 16:06:23;;;;;;;58.45;36.10;;;;;;;;;;4893577;29;20084;-65
2021/10/12 16:08:51;;;;;;;53.47;35.22;;;;;;;;;;4894272;29;20055;-58
2021/10/12 16:11:17;;;;;;;51.75;35.10;;;;;;;;;;4893842;29;20174;-82
2021/10/12 16:13:44;;;;;;;54.50;35.58;;;;;;;;;;4894046;29;20751;-58
2021/10/12 16:16:12;;;;;;;58.00;36.70;;;;;;;;;;4893929;29;20037;-58
2021/10/12 16:21:44;;;;;;;76.35;43.67;;;;;;;;;;4934030;29;20078;-61
2021/10/12 16:24:11;;;;;;;72.50;43.90;;;;;;;;;;4934025;29;20110;-58
2021/10/12 16:26:38;;;;;;;71.22;41.70;;;;;;;;;;4933678;29;20028;-58
2021/10/12 16:29:05;;;;;;;69.03;43.13;;;;;;;;;;4932397;29;20048;-58
2021/10/12 16:31:35;;;;;;;69.82;42.53;;;;;;;;;;4932746;29;20046;-66
2021/10/12 16:34:09;;;;;;;73.88;43.45;;;;;;;;;;4932726;29;20547;-58
2021/10/12 16:36:40;;;;;;;75.75;44.58;;;;;;;;;;4933480;29;20416;-66
2021/10/12 16:39:06;;;;;;;79.35;46.30;;;;;;;;;;4933713;29;20115;-74
2021/10/12 16:41:32;;;;;;;97.65;63.67;;;;;;;;;;4933247;29;20039;-58
2021/10/12 16:43:58;;;;;;;152.63;98.90;;;;;;;;;;4933623;29;20103;-74
2021/10/12 16:46:24;;;;;;;127.07;79.90;;;;;;;;;;4934014;29;20027;-67
2021/10/12 16:48:50;;;;;;;123.32;75.93;;;;;;;;;;4933764;29;20035;-71
2021/10/12 16:51:17;;;;;;;101.65;61.75;;;;;;;;;;4933848;29;20039;-59
2021/10/12 16:53:43;;;;;;;95.30;57.20;;;;;;;;;;4933009;29;20555;-64
2021/10/12 16:56:09;;;;;;;87.63;53.55;;;;;;;;;;4932554;29;20036;-65
2021/10/12 16:58:35;;;;;;;80.45;50.38;;;;;;;;;;4928367;29;20075;-67
2021/10/12 17:01:03;;;;;;;75.38;46.75;;;;;;;;;;4932252;29;20028;-65
2021/10/12 17:03:29;;;;;;;75.90;46.20;;;;;;;;;;4932391;29;20035;-60
2021/10/12 17:05:55;;;;;;;72.15;46.13;;;;;;;;;;4932881;29;20040;-80
2021/10/12 17:08:21;;;;;;;73.68;47.45;;;;;;;;;;4933246;29;20043;-64
2021/10/12 17:10:47;;;;;;;78.05;47.55;;;;;;;;;;4933499;29;20537;-62
2021/10/12 17:13:13;;;;;;;92.15;50.33;;;;;;;;;;4932385;29;20050;-68
2021/10/12 17:15:39;;;;;;;86.72;50.10;;;;;;;;;;4931229;29;20114;-70
2021/10/12 17:18:06;;;;;;;81.28;47.28;;;;;;;;;;4932006;29;20083;-58
2021/10/12 17:20:32;;;;;;;87.63;49.60;;;;;;;;;;4931020;29;20103;-58
2021/10/12 17:22:59;;;;;;;81.00;48.33;;;;;;;;;;4931214;29;20026;-59
2021/10/12 17:25:25;;;;;;;88.43;51.20;;;;;;;;;;4921377;29;20115;-72
2021/10/12 17:27:51;;;;;;;87.47;49.78;;;;;;;;;;4932091;29;20024;-59
2021/10/12 17:30:17;;;;;;;82.18;49.72;;;;;;;;;;4930141;29;20020;-57
2021/10/12 17:32:43;;;;;;;81.13;48.97;;;;;;;;;;4931274;29;20035;-61
2021/10/12 17:35:09;;;;;;;82.45;49.38;;;;;;;;;;4931025;29;20440;-58
2021/10/12 17:37:35;;;;;;;85.82;50.35;;;;;;;;;;4931439;29;20027;-57
2021/10/12 17:40:01;;;;;;;90.65;52.28;;;;;;;;;;4931527;29;20024;-61
2021/10/12 17:42:31;;;;;;;96.45;53.35;;;;;;;;;;4931764;29;20050;-59
2021/10/12 17:44:57;;;;;;;84.65;51.78;;;;;;;;;;4934870;29;20054;-59
2021/10/12 17:47:23;;;;;;;94.70;53.38;;;;;;;;;;4935859;29;20088;-60
2021/10/12 17:49:50;;;;;;;94.93;58.00;;;;;;;;;;4935602;29;20094;-62
2021/10/12 17:52:16;;;;;;;95.85;54.13;;;;;;;;;;4935996;29;20031;-66
2021/10/12 17:54:45;;;;;;;96.45;55.45;;;;;;;;;;4934976;29;20024;-60
2021/10/12 17:57:11;;;;;;;90.43;55.65;;;;;;;;;;4935107;29;20137;-59
2021/10/12 17:59:38;;;;;;;92.03;53.97;;;;;;;;;;4931231;29;20027;-63
2021/10/12 18:02:04;;;;;;;96.18;55.35;;;;;;;;;;4934336;29;20031;-60
2021/10/12 18:04:33;;;;;;;86.38;53.03;;;;;;;;;;4935329;29;20027;-61
2021/10/12 18:06:59;;;;;;;95.35;54.55;;;;;;;;;;4933163;29;20096;-59
2021/10/12 18:09:26;;;;;;;92.60;54.78;;;;;;;;;;4935297;29;20027;-68
2021/10/12 18:11:52;;;;;;;97.35;56.65;;;;;;;;;;4936090;29;20095;-59
2021/10/12 18:14:18;;;;;;;110.50;69.68;;;;;;;;;;4936191;29;20502;-60
2021/10/12 18:16:44;;;;;;;114.38;70.47;;;;;;;;;;4936207;29;20039;-62
2021/10/12 18:19:11;;;;;;;109.90;66.32;;;;;;;;;;4936122;29;20123;-61
2021/10/12 18:21:38;;;;;;;93.97;57.53;;;;;;;;;;4936347;29;20024;-60
2021/10/12 18:24:06;;;;;;;84.53;51.40;;;;;;;;;;4936628;29;20068;-63
2021/10/12 18:26:34;;;;;;;128.23;85.90;;;;;;;;;;4936495;29;20042;-61
2021/10/12 18:29:03;;;;;;;124.95;82.90;;;;;;;;;;4935903;29;20020;-72
2021/10/12 18:31:29;;;;;;;109.55;70.63;;;;;;;;;;4936204;29;20428;-61
2021/10/12 18:33:57;;;;;;;108.40;71.50;;;;;;;;;;4935969;29;20510;-61
2021/10/12 18:36:23;;;;;;;111.13;72.57;;;;;;;;;;4936215;29;20076;-58
2021/10/12 18:38:54;;;;;;;104.68;69.82;;;;;;;;;;4936034;29;20034;-60
2021/10/12 18:41:20;;;;;;;98.03;64.40;;;;;;;;;;4935680;29;20083;-60
2021/10/12 18:43:46;;;;;;;96.63;62.42;;;;;;;;;;4935885;29;20032;-62
2021/10/12 18:46:13;;;;;;;92.63;58.78;;;;;;;;;;4936244;29;20115;-62
2021/10/12 18:48:39;;;;;;;85.55;54.00;;;;;;;;;;4936078;29;20046;-62
2021/10/12 18:51:05;;;;;;;90.65;55.63;;;;;;;;;;4936123;29;20064;-60
2021/10/12 18:53:31;;;;;;;91.45;56.63;;;;;;;;;;4934426;29;20051;-60
2021/10/12 18:55:57;;;;;;;84.25;53.40;;;;;;;;;;4933979;29;20036;-62
2021/10/12 18:58:24;;;;;;;80.95;50.90;;;;;;;;;;4935742;29;20036;-67
2021/10/12 19:00:52;;;;;;;79.30;50.17;;;;;;;;;;4935758;29;20031;-60
2021/10/12 19:03:20;;;;;;;75.30;48.20;;;;;;;;;;4935872;29;20118;-60
2021/10/12 19:05:47;;;;;;;76.07;47.60;;;;;;;;;;4935653;29;20793;-59
2021/10/12 19:08:13;;;;;;;72.18;46.33;;;;;;;;;;4935926;29;20055;-68
2021/10/12 19:13:24;;;;;;;68.90;44.22;;;;;;;;;;4935741;29;20613;-79
2021/10/12 19:15:50;;;;;;;75.00;46.25;;;;;;;;;;4935588;29;20607;-76
2021/10/12 19:18:16;;;;;;;69.10;44.30;;;;;;;;;;4935651;29;20070;-75
2021/10/12 19:20:42;;;;;;;82.30;46.35;;;;;;;;;;4935415;29;20038;-62
2021/10/12 19:23:08;;;;;;;78.55;48.90;;;;;;;;;;4935406;29;20027;-59
2021/10/12 19:25:34;;;;;;;77.95;48.88;;;;;;;;;;4935336;29;20039;-60
2021/10/12 19:28:00;;;;;;;82.75;51.25;;;;;;;;;;4934801;29;20019;-60
2021/10/12 19:30:26;;;;;;;75.18;47.22;;;;;;;;;;4935437;29;20035;-76
2021/10/12 19:32:52;;;;;;;80.40;46.92;;;;;;;;;;4935707;29;20028;-70
2021/10/12 19:35:18;;;;;;;75.10;48.08;;;;;;;;;;4935450;29;20028;-82
2021/10/12 19:37:44;;;;;;;73.97;46.63;;;;;;;;;;4935365;29;20020;-73
2021/10/12 19:40:10;;;;;;;75.60;46.10;;;;;;;;;;4918377;29;20066;-64
2021/10/12 19:42:36;;;;;;;78.28;47.20;;;;;;;;;;4934844;29;20749;-73
2021/10/12 19:45:03;;;;;;;75.07;47.40;;;;;;;;;;4934656;29;20039;-61
2021/10/12 19:47:29;;;;;;;81.45;48.25;;;;;;;;;;4934920;29;20090;-61
2021/10/12 19:49:55;;;;;;;86.47;51.33;;;;;;;;;;4934628;29;20058;-76
2021/10/12 19:52:22;;;;;;;86.72;53.85;;;;;;;;;;4934798;29;20031;-71
2021/10/12 19:54:48;;;;;;;97.78;57.83;;;;;;;;;;4934805;29;20396;-61
2021/10/12 19:57:14;;;;;;;100.72;60.85;;;;;;;;;;4934972;29;20411;-61
2021/10/12 19:59:40;;;;;;;87.38;53.45;;;;;;;;;;4934612;29;20084;-61
2021/10/12 20:04:51;;;;;;;84.50;51.30;;;;;;;;;;4934658;29;20191;-62
2021/10/12 20:07:17;;;;;;;82.47;50.25;;;;;;;;;;4934525;29;20035;-66
2021/10/12 20:09:43;;;;;;;78.10;49.80;;;;;;;;;;4934614;29;20179;-61
2021/10/12 20:12:09;;;;;;;84.10;50.85;;;;;;;;;;4934388;29;20476;-68